createdAt,value
2022-10-21T00:00:15.039Z,10.60
2022-10-21T00:02:42.812Z,11.07
2022-10-21T00:05:11.035Z,11.17
2022-10-21T00:07:38.979Z,10.70
2022-10-21T00:10:08.043Z,11.60
2022-10-21T00:12:36.597Z,10.03
2022-10-21T00:15:07.326Z,10.90
2022-10-21T00:17:37.621Z,10.87
2022-10-21T00:20:06.864Z,11.37
2022-10-21T00:22:34.986Z,11.33
2022-10-21T00:25:03.007Z,10.23
2022-10-21T00:27:31.616Z,10.17
2022-10-21T00:29:59.378Z,10.70
2022-10-21T00:32:28.588Z,10.90
2022-10-21T00:34:56.351Z,10.83
2022-10-21T00:37:24.110Z,11.57
2022-10-21T00:39:53.018Z,10.37
2022-10-21T00:42:22.880Z,11.20
2022-10-21T00:45:17.495Z,10.50
2022-10-21T00:47:49.983Z,10.10
2022-10-21T00:50:31.995Z,10.63
2022-10-21T00:53:02.170Z,10.10
2022-10-21T00:55:32.288Z,10.60
2022-10-21T00:58:01.242Z,10.10
2022-10-21T01:00:29.012Z,10.60
2022-10-21T01:02:58.542Z,10.20
2022-10-21T01:05:27.735Z,10.03
2022-10-21T01:07:55.862Z,10.23
2022-10-21T01:10:23.698Z,10.23
2022-10-21T01:13:04.111Z,11.40
2022-10-21T01:15:36.534Z,11.23
2022-10-21T01:18:13.011Z,10.67
2022-10-21T01:20:56.938Z,10.17
2022-10-21T01:23:52.316Z,10.33
2022-10-21T01:26:53.606Z,11.03
2022-10-21T01:30:06.943Z,9.73
2022-10-21T01:33:07.833Z,10.27
2022-10-21T01:35:42.633Z,9.57
2022-10-21T01:38:17.380Z,10.07
2022-10-21T01:40:54.564Z,10.33
2022-10-21T01:43:30.701Z,10.23
2022-10-21T01:46:03.448Z,9.90
2022-10-21T01:48:36.387Z,9.77
2022-10-21T01:51:06.787Z,9.67
2022-10-21T01:53:41.742Z,10.07
2022-10-21T01:56:10.777Z,9.93
2022-10-21T01:58:42.597Z,10.07
2022-10-21T02:01:13.878Z,10.10
2022-10-21T02:03:46.208Z,11.00
2022-10-21T02:06:14.993Z,10.03
2022-10-21T02:08:43.717Z,10.40
2022-10-21T02:11:13.176Z,10.20
2022-10-21T02:13:44.577Z,10.43
2022-10-21T02:16:16.870Z,10.47
2022-10-21T02:18:46.047Z,10.33
2022-10-21T02:21:17.661Z,9.73
2022-10-21T02:23:53.222Z,9.63
2022-10-21T02:26:21.593Z,9.57
2022-10-21T02:28:50.472Z,8.70
2022-10-21T02:31:32.646Z,8.87
2022-10-21T02:34:11.601Z,8.40
2022-10-21T02:36:49.652Z,9.90
2022-10-21T02:39:24.433Z,8.27
2022-10-21T02:41:55.447Z,8.77
2022-10-21T02:44:23.616Z,9.10
2022-10-21T02:46:51.604Z,9.00
2022-10-21T02:49:20.784Z,9.10
2022-10-21T02:51:48.686Z,8.17
2022-10-21T02:54:16.583Z,8.13
2022-10-21T02:56:44.424Z,8.57
2022-10-21T02:59:12.353Z,9.17
2022-10-21T03:01:40.107Z,8.50
2022-10-21T03:04:07.890Z,8.40
2022-10-21T03:06:37.060Z,9.37
2022-10-21T03:09:05.364Z,8.83
2022-10-21T03:11:33.276Z,8.80
2022-10-21T03:14:01.052Z,8.93
2022-10-21T03:16:28.827Z,8.73
2022-10-21T03:18:56.635Z,8.33
2022-10-21T03:21:24.543Z,9.20
2022-10-21T03:23:53.724Z,9.17
2022-10-21T03:26:21.512Z,9.53
2022-10-21T03:28:49.276Z,9.47
2022-10-21T03:31:17.036Z,8.33
2022-10-21T03:33:44.810Z,8.87
2022-10-21T03:36:12.579Z,8.47
2022-10-21T03:38:40.434Z,8.90
2022-10-21T03:41:09.618Z,8.77
2022-10-21T03:43:37.367Z,9.63
2022-10-21T03:46:05.314Z,9.57
2022-10-21T03:48:33.120Z,9.00
2022-10-21T03:51:00.918Z,9.23
2022-10-21T03:53:42.847Z,9.63
2022-10-21T03:56:12.958Z,9.43
2022-10-21T03:58:41.040Z,10.13
2022-10-21T04:01:12.883Z,9.30
2022-10-21T04:03:41.124Z,9.67
2022-10-21T04:06:08.920Z,9.00
2022-10-21T04:08:37.692Z,10.40
2022-10-21T04:11:05.898Z,9.20
2022-10-21T04:13:35.091Z,10.17
2022-10-21T04:16:04.635Z,10.17
2022-10-21T04:18:32.578Z,10.60
2022-10-21T04:21:00.348Z,8.87
2022-10-21T04:23:28.158Z,9.63
2022-10-21T04:25:55.918Z,8.57
2022-10-21T04:28:23.754Z,9.47
2022-10-21T04:30:53.170Z,8.63
2022-10-21T04:33:20.938Z,9.43
2022-10-21T04:35:48.782Z,8.73
2022-10-21T04:38:16.686Z,9.57
2022-10-21T04:40:44.445Z,9.70
2022-10-21T04:43:12.206Z,9.40
2022-10-21T04:45:40.587Z,9.63
2022-10-21T04:48:09.720Z,9.90
2022-10-21T04:50:37.508Z,10.10
2022-10-21T04:53:05.276Z,10.00
2022-10-21T04:55:33.020Z,10.30
2022-10-21T04:58:01.647Z,9.80
2022-10-21T05:00:29.419Z,10.30
2022-10-21T05:02:57.221Z,9.23
2022-10-21T05:05:26.520Z,9.57
2022-10-21T05:07:54.388Z,9.70
2022-10-21T05:10:23.788Z,9.67
2022-10-21T05:12:51.645Z,10.30
2022-10-21T05:15:19.435Z,9.83
2022-10-21T05:17:47.188Z,10.20
2022-10-21T05:20:15.393Z,10.37
2022-10-21T05:22:44.598Z,9.97
2022-10-21T05:25:12.532Z,8.93
2022-10-21T05:27:40.638Z,9.03
2022-10-21T05:30:09.828Z,9.30
2022-10-21T05:32:37.935Z,9.17
2022-10-21T05:35:06.407Z,9.10
2022-10-21T05:37:34.163Z,9.70
2022-10-21T05:40:04.263Z,9.20
2022-10-21T05:42:32.080Z,9.10
2022-10-21T05:44:59.826Z,9.07
2022-10-21T05:47:27.633Z,9.77
2022-10-21T05:49:55.423Z,9.27
2022-10-21T05:52:23.186Z,9.50
2022-10-21T05:54:50.979Z,8.80
2022-10-21T05:57:20.362Z,9.43
2022-10-21T05:59:48.144Z,8.97
2022-10-21T06:02:15.884Z,9.40
2022-10-21T06:04:43.928Z,10.27
2022-10-21T06:07:11.807Z,10.00
2022-10-21T06:09:39.593Z,10.00
2022-10-21T06:12:07.760Z,8.90
2022-10-21T06:14:37.267Z,9.73
2022-10-21T06:17:06.010Z,9.37
2022-10-21T06:19:33.769Z,9.53
2022-10-21T06:22:01.623Z,10.90
2022-10-21T06:24:29.914Z,10.60
2022-10-21T06:26:57.705Z,9.83
2022-10-21T06:29:25.672Z,10.00
2022-10-21T06:31:54.791Z,10.00
2022-10-21T06:34:22.709Z,9.73
2022-10-21T06:36:50.507Z,9.77
2022-10-21T06:39:18.316Z,9.50
2022-10-21T06:41:46.108Z,8.17
2022-10-21T06:44:13.999Z,8.27
2022-10-21T06:46:41.760Z,8.07
2022-10-21T06:49:10.875Z,7.93
2022-10-21T06:51:39.372Z,8.70
2022-10-21T06:54:07.681Z,8.93
2022-10-21T06:56:35.444Z,9.20
2022-10-21T06:59:03.256Z,9.50
2022-10-21T07:01:47.949Z,9.97
2022-10-21T07:04:23.138Z,11.77
2022-10-21T07:06:50.988Z,11.27
2022-10-21T07:09:18.820Z,10.57
2022-10-21T07:11:46.681Z,9.93
2022-10-21T07:14:14.479Z,10.13
2022-10-21T07:16:42.296Z,10.30
2022-10-21T07:19:11.366Z,9.70
2022-10-21T07:21:40.880Z,9.30
2022-10-21T07:24:08.816Z,9.87
2022-10-21T07:26:36.749Z,9.30
2022-10-21T07:29:04.847Z,9.50
2022-10-21T07:31:35.869Z,9.50
2022-10-21T07:36:41.636Z,8.60
2022-10-21T07:39:12.699Z,8.07
2022-10-21T07:41:43.294Z,8.27
2022-10-21T07:44:11.862Z,9.50
2022-10-21T07:46:40.838Z,9.93
2022-10-21T07:49:09.327Z,9.60
2022-10-21T07:51:37.126Z,9.53
2022-10-21T07:54:07.114Z,10.47
2022-10-21T07:56:36.681Z,9.40
2022-10-21T07:59:06.784Z,9.00
2022-10-21T08:01:40.802Z,8.27
2022-10-21T08:04:08.681Z,8.77
2022-10-21T08:06:36.954Z,8.87
2022-10-21T08:09:06.732Z,8.30
2022-10-21T08:11:35.426Z,8.60
2022-10-21T08:14:03.537Z,8.87
2022-10-21T08:16:31.329Z,9.50
2022-10-21T08:19:01.151Z,9.73
2022-10-21T08:21:29.106Z,10.30
2022-10-21T08:23:56.981Z,10.53
2022-10-21T08:26:26.340Z,9.93
2022-10-21T08:28:54.209Z,9.53
2022-10-21T08:31:23.245Z,8.43
2022-10-21T08:33:51.375Z,7.63
2022-10-21T08:36:21.218Z,8.67
2022-10-21T08:38:49.506Z,9.10
2022-10-21T08:41:49.574Z,9.70
2022-10-21T08:44:28.291Z,9.13
2022-10-21T08:47:03.732Z,7.50
2022-10-21T08:49:41.334Z,7.70
2022-10-21T08:52:14.118Z,7.27
2022-10-21T08:54:47.773Z,8.10
2022-10-21T08:57:17.669Z,7.00
2022-10-21T08:59:46.730Z,7.03
2022-10-21T09:02:25.673Z,6.97
2022-10-21T09:05:00.953Z,6.83
2022-10-21T09:07:34.667Z,6.10
2022-10-21T09:10:08.283Z,5.67
2022-10-21T09:12:52.012Z,6.00
2022-10-21T09:15:26.892Z,6.20
2022-10-21T09:18:13.983Z,6.03
2022-10-21T09:20:56.719Z,5.90
2022-10-21T09:23:39.254Z,6.40
2022-10-21T09:26:15.686Z,5.43
2022-10-21T09:28:47.150Z,6.80
2022-10-21T09:31:18.204Z,6.13
2022-10-21T09:33:49.868Z,6.47
2022-10-21T09:36:22.129Z,6.00
2022-10-21T09:38:56.164Z,6.10
2022-10-21T09:41:26.032Z,5.43
2022-10-21T09:43:56.161Z,6.43
2022-10-21T09:46:24.212Z,6.30
2022-10-21T09:49:25.820Z,5.60
2022-10-21T09:51:42.729Z,5.50
2022-10-21T09:54:14.037Z,5.90
2022-10-21T09:56:46.045Z,5.57
2022-10-21T09:59:18.864Z,5.43
2022-10-21T10:01:47.575Z,5.27
2022-10-21T10:04:23.688Z,5.43
2022-10-21T10:06:51.628Z,5.40
2022-10-21T10:09:27.648Z,5.70
2022-10-21T10:11:57.941Z,6.37
2022-10-21T10:14:30.847Z,5.57
2022-10-21T10:17:20.053Z,5.87
2022-10-21T10:20:08.198Z,5.90
2022-10-21T10:22:37.877Z,5.57
2022-10-21T10:25:11.013Z,5.20
2022-10-21T10:27:48.668Z,5.70
2022-10-21T10:30:18.818Z,5.50
2022-10-21T10:32:47.893Z,5.90
2022-10-21T10:35:54.569Z,6.30
2022-10-21T10:38:27.515Z,5.93
2022-10-21T10:40:57.846Z,6.13
2022-10-21T10:43:30.783Z,5.97
2022-10-21T10:46:01.437Z,6.10
2022-10-21T10:48:38.683Z,5.60
2022-10-21T10:51:09.546Z,4.90
2022-10-21T10:53:39.520Z,5.17
2022-10-21T10:56:20.413Z,5.00
2022-10-21T10:58:52.190Z,4.27
2022-10-21T11:01:28.413Z,4.80
2022-10-21T11:04:02.349Z,4.23
2022-10-21T11:06:36.719Z,4.33
2022-10-21T11:09:07.761Z,4.90
2022-10-21T11:11:38.240Z,4.53
2022-10-21T11:14:15.300Z,4.90
2022-10-21T11:17:01.045Z,4.63
2022-10-21T11:19:35.260Z,4.87
2022-10-21T11:22:13.680Z,4.83
2022-10-21T11:24:54.180Z,5.00
2022-10-21T11:27:31.433Z,4.60
2022-10-21T11:30:06.292Z,5.50
2022-10-21T11:32:48.476Z,4.57
2022-10-21T11:35:31.230Z,5.13
2022-10-21T11:38:13.520Z,4.90
2022-10-21T11:40:42.935Z,5.37
2022-10-21T11:43:25.207Z,4.90
2022-10-21T11:46:00.958Z,5.47
2022-10-21T11:49:02.353Z,5.03
2022-10-21T11:51:40.869Z,5.40
2022-10-21T11:54:36.347Z,4.90
2022-10-21T11:57:10.009Z,5.73
2022-10-21T11:59:55.248Z,5.00
2022-10-21T12:02:29.951Z,5.30
2022-10-21T12:05:08.702Z,4.87
2022-10-21T12:08:12.961Z,5.00
2022-10-21T12:10:47.511Z,4.50
2022-10-21T12:13:21.323Z,5.30
2022-10-21T12:15:52.223Z,5.30
2022-10-21T12:18:23.697Z,5.27
2022-10-21T12:20:54.613Z,5.17
2022-10-21T12:23:25.049Z,4.90
2022-10-21T12:26:11.227Z,5.50
2022-10-21T12:28:44.762Z,5.10
2022-10-21T12:31:32.840Z,4.93
2022-10-21T12:34:04.322Z,5.37
2022-10-21T12:36:42.913Z,5.80
2022-10-21T12:39:50.796Z,5.77
2022-10-21T12:42:21.109Z,5.67
2022-10-21T12:44:50.640Z,5.43
2022-10-21T12:47:29.673Z,6.00
2022-10-21T12:50:18.607Z,5.70
2022-10-21T12:53:03.660Z,6.40
2022-10-21T12:55:39.193Z,6.57
2022-10-21T12:58:18.752Z,5.70
2022-10-21T13:00:53.750Z,6.00
2022-10-21T13:03:22.875Z,6.17
2022-10-21T13:06:06.061Z,6.30
2022-10-21T13:08:53.688Z,6.40
2022-10-21T13:11:37.739Z,6.23
2022-10-21T13:14:40.326Z,6.97
2022-10-21T13:17:42.489Z,5.67
2022-10-21T13:20:43.604Z,7.30
2022-10-21T13:23:31.683Z,6.97
2022-10-21T13:26:20.908Z,7.03
2022-10-21T13:29:01.592Z,7.13
2022-10-21T13:31:30.144Z,7.17
2022-10-21T13:33:58.191Z,6.63
2022-10-21T13:39:23.080Z,6.83
2022-10-21T13:42:01.110Z,7.17
2022-10-21T13:44:34.127Z,7.00
2022-10-21T13:47:27.728Z,6.63
2022-10-21T13:49:57.949Z,6.47
2022-10-21T13:52:29.584Z,6.43
2022-10-21T13:54:58.224Z,7.07
2022-10-21T13:57:30.954Z,6.43
2022-10-21T14:00:03.772Z,6.47
2022-10-21T14:02:31.586Z,6.70
2022-10-21T14:04:59.350Z,6.10
2022-10-21T14:07:28.032Z,6.13
2022-10-21T14:09:58.309Z,6.73
2022-10-21T14:12:30.099Z,6.40
2022-10-21T14:15:04.337Z,6.17
2022-10-21T14:17:33.081Z,6.70
2022-10-21T14:20:07.518Z,6.43
2022-10-21T14:22:35.642Z,6.80
2022-10-21T14:25:04.263Z,6.67
2022-10-21T14:27:34.989Z,6.60
2022-10-21T14:30:10.076Z,6.60
2022-10-21T14:32:38.376Z,6.97
2022-10-21T14:35:24.101Z,6.73
2022-10-21T14:37:54.709Z,6.30
2022-10-21T14:40:26.697Z,6.87
2022-10-21T14:42:56.754Z,7.13
2022-10-21T14:45:29.148Z,6.83
2022-10-21T14:48:07.313Z,6.77
2022-10-21T14:50:35.417Z,6.87
2022-10-21T14:53:04.686Z,6.47
2022-10-21T14:55:32.516Z,6.30
2022-10-21T14:58:06.282Z,7.00
2022-10-21T15:00:40.377Z,6.57
2022-10-21T15:03:10.871Z,6.53
2022-10-21T15:05:44.122Z,6.50
2022-10-21T15:08:32.087Z,6.00
2022-10-21T15:11:24.304Z,7.07
2022-10-21T15:14:16.552Z,8.20
2022-10-21T15:16:49.548Z,10.23
2022-10-21T15:19:21.002Z,10.97
2022-10-21T15:21:52.588Z,7.53
2022-10-21T15:24:24.248Z,7.27
2022-10-21T15:26:54.215Z,7.07
2022-10-21T15:29:29.688Z,6.60
2022-10-21T15:32:00.434Z,7.00
2022-10-21T15:34:28.941Z,7.03
2022-10-21T15:36:56.766Z,7.73
2022-10-21T15:39:24.837Z,12.30
2022-10-21T15:41:55.140Z,10.57
2022-10-21T15:44:25.935Z,7.80
2022-10-21T15:46:58.169Z,8.53
2022-10-21T15:49:31.879Z,8.93
2022-10-21T15:51:59.826Z,9.00
2022-10-21T15:54:27.649Z,8.30
2022-10-21T15:56:55.786Z,7.27
2022-10-21T15:59:25.699Z,7.50
2022-10-21T16:01:54.237Z,7.40
2022-10-21T16:04:22.480Z,6.37
2022-10-21T16:06:52.319Z,6.90
2022-10-21T16:09:22.464Z,6.50
2022-10-21T16:11:59.275Z,7.37
2022-10-21T16:14:29.610Z,7.47
2022-10-21T16:16:59.161Z,6.97
2022-10-21T16:19:26.980Z,7.97
2022-10-21T16:21:56.541Z,6.30
2022-10-21T16:24:24.355Z,6.63
2022-10-21T16:26:52.180Z,7.07
2022-10-21T16:29:21.567Z,6.70
2022-10-21T16:31:49.439Z,6.63
2022-10-21T16:34:17.268Z,6.47
2022-10-21T16:36:45.259Z,7.00
2022-10-21T16:39:17.023Z,6.40
2022-10-21T16:41:45.783Z,6.50
2022-10-21T16:44:13.575Z,6.37
2022-10-21T16:46:42.828Z,6.23
2022-10-21T16:49:13.990Z,6.40
2022-10-21T16:51:43.165Z,6.47
2022-10-21T16:54:11.666Z,6.00
2022-10-21T16:56:41.573Z,6.23
2022-10-21T16:59:09.396Z,6.73
2022-10-21T17:01:37.395Z,6.73
2022-10-21T17:04:05.463Z,6.17
2022-10-21T17:06:33.580Z,6.80
2022-10-21T17:09:03.877Z,6.47
2022-10-21T17:11:34.489Z,6.67
2022-10-21T17:14:05.509Z,6.13
2022-10-21T17:16:33.479Z,6.47
2022-10-21T17:19:01.326Z,6.83
2022-10-21T17:21:32.763Z,8.10
2022-10-21T17:24:02.242Z,7.47
2022-10-21T17:26:30.962Z,6.37
2022-10-21T17:28:58.964Z,6.70
2022-10-21T17:31:29.584Z,6.27
2022-10-21T17:34:02.150Z,6.33
2022-10-21T17:36:29.958Z,7.07
2022-10-21T17:38:57.745Z,6.30
2022-10-21T17:41:25.492Z,6.43
2022-10-21T17:43:53.313Z,5.80
2022-10-21T17:46:23.210Z,5.40
2022-10-21T17:48:53.335Z,5.37
2022-10-21T17:51:22.030Z,6.03
2022-10-21T17:53:51.088Z,5.93
2022-10-21T17:56:19.558Z,6.30
2022-10-21T17:58:51.056Z,5.73
2022-10-21T18:01:19.332Z,6.03
2022-10-21T18:03:47.182Z,6.73
2022-10-21T18:06:17.037Z,5.70
2022-10-21T18:08:45.222Z,6.20
2022-10-21T18:14:10.250Z,6.80
2022-10-21T18:16:38.078Z,6.23
2022-10-21T18:19:05.899Z,6.13
2022-10-21T18:21:35.067Z,6.10
2022-10-21T18:24:02.818Z,6.37
2022-10-21T18:26:32.262Z,7.00
2022-10-21T18:29:01.734Z,7.30
2022-10-21T18:31:32.209Z,6.83
2022-10-21T18:34:01.375Z,6.87
2022-10-21T18:36:29.432Z,6.20
2022-10-21T18:38:59.673Z,6.80
2022-10-21T18:41:27.891Z,5.60
2022-10-21T18:43:57.946Z,6.00
2022-10-21T18:46:25.933Z,5.13
2022-10-21T18:48:53.994Z,5.30
2022-10-21T18:51:23.184Z,5.73
2022-10-21T18:53:53.106Z,6.03
2022-10-21T18:56:24.446Z,6.17
2022-10-21T18:58:53.054Z,6.87
2022-10-21T19:01:22.320Z,6.30
2022-10-21T19:03:54.008Z,6.30
2022-10-21T19:06:35.802Z,5.70
2022-10-21T19:09:06.730Z,5.90
2022-10-21T19:11:36.223Z,6.17
2022-10-21T19:14:05.457Z,5.37
2022-10-21T19:16:35.609Z,5.77
2022-10-21T19:19:03.617Z,5.63
2022-10-21T19:21:31.778Z,5.57
2022-10-21T19:24:01.572Z,5.13
2022-10-21T19:26:29.868Z,5.60
2022-10-21T19:29:02.775Z,5.10
2022-10-21T19:31:34.624Z,5.50
2022-10-21T19:34:05.492Z,5.70
2022-10-21T19:36:33.484Z,5.13
2022-10-21T19:39:01.657Z,5.20
2022-10-21T19:41:29.682Z,5.97
2022-10-21T19:43:59.234Z,5.63
2022-10-21T19:46:30.087Z,5.37
2022-10-21T19:48:58.497Z,5.67
2022-10-21T19:51:27.319Z,5.43
2022-10-21T19:53:56.628Z,4.93
2022-10-21T19:56:29.638Z,5.23
2022-10-21T19:59:02.739Z,5.40
2022-10-21T20:01:33.258Z,5.37
2022-10-21T20:04:02.523Z,5.70
2022-10-21T20:06:32.011Z,5.60
2022-10-21T20:09:01.817Z,5.47
2022-10-21T20:11:30.526Z,5.53
2022-10-21T20:13:58.672Z,6.07
2022-10-21T20:16:29.305Z,5.60
2022-10-21T20:18:59.463Z,7.20
2022-10-21T20:21:28.299Z,7.17
2022-10-21T20:23:58.246Z,7.27
2022-10-21T20:26:26.835Z,6.33
2022-10-21T20:28:55.024Z,6.40
2022-10-21T20:31:23.384Z,5.90
2022-10-21T20:33:52.640Z,6.00
2022-10-21T20:36:24.174Z,6.43
2022-10-21T20:38:53.489Z,7.00
2022-10-21T20:41:24.104Z,6.87
2022-10-21T20:43:52.907Z,7.03
2022-10-21T20:46:22.605Z,7.03
2022-10-21T20:48:52.297Z,6.90
2022-10-21T20:51:23.751Z,6.10
2022-10-21T20:53:53.326Z,7.30
2022-10-21T20:56:21.570Z,6.60
2022-10-21T20:58:49.506Z,6.73
2022-10-21T21:01:20.823Z,6.07
2022-10-21T21:03:51.099Z,5.80
2022-10-21T21:06:19.403Z,6.00
2022-10-21T21:09:08.199Z,5.83
2022-10-21T21:11:36.562Z,6.40
2022-10-21T21:14:04.944Z,6.87
2022-10-21T21:16:32.789Z,7.33
2022-10-21T21:19:03.222Z,7.90
2022-10-21T21:21:32.587Z,7.63
2022-10-21T21:24:02.577Z,8.57
2022-10-21T21:26:32.157Z,8.47
2022-10-21T21:29:00.540Z,7.60
2022-10-21T21:31:29.859Z,8.03
2022-10-21T21:33:57.725Z,7.23
2022-10-21T21:36:25.653Z,7.40
2022-10-21T21:38:54.436Z,6.63
2022-10-21T21:41:25.457Z,6.10
2022-10-21T21:43:54.573Z,6.20
2022-10-21T21:46:26.262Z,5.70
2022-10-21T21:48:59.813Z,6.30
2022-10-21T21:51:32.475Z,6.30
2022-10-21T21:54:00.467Z,5.63
2022-10-21T21:56:29.772Z,5.57
2022-10-21T21:58:58.048Z,5.03
2022-10-21T22:01:27.875Z,4.93
2022-10-21T22:03:56.780Z,4.80
2022-10-21T22:06:27.280Z,4.57
2022-10-21T22:08:55.430Z,5.53
2022-10-21T22:11:24.912Z,5.57
2022-10-21T22:13:54.413Z,5.33
2022-10-21T22:16:24.442Z,5.20
2022-10-21T22:18:52.344Z,5.90
2022-10-21T22:21:20.492Z,5.27
2022-10-21T22:23:49.887Z,5.43
2022-10-21T22:26:20.025Z,5.30
2022-10-21T22:28:48.045Z,5.47
2022-10-21T22:31:19.278Z,4.90
2022-10-21T22:33:47.718Z,4.67
2022-10-21T22:36:16.436Z,5.47
2022-10-21T22:38:44.670Z,5.37
2022-10-21T22:41:13.102Z,4.83
2022-10-21T22:43:42.746Z,4.60
2022-10-21T22:48:59.958Z,4.80
2022-10-21T22:51:27.758Z,5.17
2022-10-21T22:53:56.660Z,4.70
2022-10-21T22:56:25.008Z,4.73
2022-10-21T22:58:53.209Z,4.23
2022-10-21T23:01:21.793Z,4.57
2022-10-21T23:03:49.580Z,5.20
2022-10-21T23:06:18.746Z,5.90
2022-10-21T23:08:46.575Z,7.00
2022-10-21T23:11:14.876Z,5.70
2022-10-21T23:13:56.116Z,5.83
2022-10-21T23:16:30.401Z,4.63
2022-10-21T23:18:58.327Z,5.13
2022-10-21T23:21:27.697Z,5.10
2022-10-21T23:23:55.439Z,5.43
2022-10-21T23:26:23.969Z,5.13
2022-10-21T23:28:51.720Z,5.23
2022-10-21T23:31:19.923Z,4.70
2022-10-21T23:33:47.691Z,5.47
2022-10-21T23:36:15.517Z,4.83
2022-10-21T23:38:44.710Z,4.40
2022-10-21T23:41:12.460Z,5.30
2022-10-21T23:43:40.261Z,5.40
2022-10-21T23:46:08.038Z,4.43
2022-10-21T23:48:35.870Z,4.50
2022-10-21T23:51:04.249Z,4.70
2022-10-21T23:53:32.087Z,5.00
2022-10-21T23:56:01.216Z,4.90
2022-10-21T23:58:28.954Z,5.73
